sensor_id;sensor_type;location;lat;lon;timestamp;temperature;humidity
29731;DHT22;16639;51.488;0.152;2023-04-25T00:01:37;7.30;99.90
29731;DHT22;16639;51.488;0.152;2023-04-25T00:04:05;7.30;99.90
29731;DHT22;16639;51.488;0.152;2023-04-25T00:06:35;7.30;99.90
29731;DHT22;16639;51.488;0.152;2023-04-25T00:09:04;7.30;99.90
29731;DHT22;16639;51.488;0.152;2023-04-25T00:11:34;7.40;99.90
29731;DHT22;16639;51.488;0.152;2023-04-25T00:14:03;7.50;99.90
29731;DHT22;16639;51.488;0.152;2023-04-25T00:16:30;7.40;99.90
29731;DHT22;16639;51.488;0.152;2023-04-25T00:19:02;7.40;99.90
29731;DHT22;16639;51.488;0.152;2023-04-25T00:21:30;7.30;99.90
29731;DHT22;16639;51.488;0.152;2023-04-25T00:24:00;7.30;99.90
29731;DHT22;16639;51.488;0.152;2023-04-25T00:26:27;7.20;99.90
29731;DHT22;16639;51.488;0.152;2023-04-25T00:28:55;7.20;99.90
29731;DHT22;16639;51.488;0.152;2023-04-25T00:31:22;7.20;99.90
29731;DHT22;16639;51.488;0.152;2023-04-25T00:33:50;7.10;99.90
29731;DHT22;16639;51.488;0.152;2023-04-25T00:36:19;7.10;99.90
29731;DHT22;16639;51.488;0.152;2023-04-25T00:38:50;7.10;99.90
29731;DHT22;16639;51.488;0.152;2023-04-25T00:41:18;7.30;99.90
29731;DHT22;16639;51.488;0.152;2023-04-25T00:43:48;6.90;99.90
29731;DHT22;16639;51.488;0.152;2023-04-25T00:46:16;6.90;99.90
29731;DHT22;16639;51.488;0.152;2023-04-25T00:48:44;6.80;99.90
29731;DHT22;16639;51.488;0.152;2023-04-25T00:51:16;6.80;99.90
29731;DHT22;16639;51.488;0.152;2023-04-25T00:53:44;6.70;99.90
29731;DHT22;16639;51.488;0.152;2023-04-25T00:56:12;7.70;99.90
29731;DHT22;16639;51.488;0.152;2023-04-25T00:58:40;7.50;99.90
29731;DHT22;16639;51.488;0.152;2023-04-25T01:01:08;6.70;99.90
29731;DHT22;16639;51.488;0.152;2023-04-25T01:03:38;6.70;99.90
29731;DHT22;16639;51.488;0.152;2023-04-25T01:06:10;6.70;99.90
29731;DHT22;16639;51.488;0.152;2023-04-25T01:08:38;6.80;99.90
29731;DHT22;16639;51.488;0.152;2023-04-25T01:11:06;6.70;99.90
29731;DHT22;16639;51.488;0.152;2023-04-25T01:13:34;6.70;99.90
29731;DHT22;16639;51.488;0.152;2023-04-25T01:16:02;6.60;99.90
29731;DHT22;16639;51.488;0.152;2023-04-25T01:18:30;6.60;99.90
29731;DHT22;16639;51.488;0.152;2023-04-25T01:21:08;6.60;99.90
29731;DHT22;16639;51.488;0.152;2023-04-25T01:23:39;6.60;99.90
29731;DHT22;16639;51.488;0.152;2023-04-25T01:26:10;6.70;99.90
29731;DHT22;16639;51.488;0.152;2023-04-25T01:28:39;5.60;99.90
29731;DHT22;16639;51.488;0.152;2023-04-25T01:31:11;5.90;99.90
29731;DHT22;16639;51.488;0.152;2023-04-25T01:33:38;7.10;99.90
29731;DHT22;16639;51.488;0.152;2023-04-25T01:36:06;6.50;99.90
29731;DHT22;16639;51.488;0.152;2023-04-25T01:38:33;6.50;99.90
29731;DHT22;16639;51.488;0.152;2023-04-25T01:41:02;6.50;99.90
29731;DHT22;16639;51.488;0.152;2023-04-25T01:43:30;6.50;99.90
29731;DHT22;16639;51.488;0.152;2023-04-25T01:45:57;6.30;99.90
29731;DHT22;16639;51.488;0.152;2023-04-25T01:48:24;6.40;99.90
29731;DHT22;16639;51.488;0.152;2023-04-25T01:50:52;6.30;99.90
29731;DHT22;16639;51.488;0.152;2023-04-25T01:53:19;6.30;99.90
29731;DHT22;16639;51.488;0.152;2023-04-25T01:55:47;6.30;99.90
29731;DHT22;16639;51.488;0.152;2023-04-25T01:58:14;6.30;99.90
29731;DHT22;16639;51.488;0.152;2023-04-25T02:00:41;6.30;99.90
29731;DHT22;16639;51.488;0.152;2023-04-25T02:03:09;6.20;99.90
29731;DHT22;16639;51.488;0.152;2023-04-25T02:05:39;6.20;99.90
29731;DHT22;16639;51.488;0.152;2023-04-25T02:08:08;6.10;99.90
29731;DHT22;16639;51.488;0.152;2023-04-25T02:10:36;6.10;99.90
29731;DHT22;16639;51.488;0.152;2023-04-25T02:13:04;6.10;99.90
29731;DHT22;16639;51.488;0.152;2023-04-25T02:15:32;6.70;99.90
29731;DHT22;16639;51.488;0.152;2023-04-25T02:18:00;6.10;99.90
29731;DHT22;16639;51.488;0.152;2023-04-25T02:20:29;6.20;99.90
29731;DHT22;16639;51.488;0.152;2023-04-25T02:22:57;6.20;99.90
29731;DHT22;16639;51.488;0.152;2023-04-25T02:25:24;6.00;99.90
29731;DHT22;16639;51.488;0.152;2023-04-25T02:27:52;6.10;99.90
29731;DHT22;16639;51.488;0.152;2023-04-25T02:30:19;6.20;99.90
29731;DHT22;16639;51.488;0.152;2023-04-25T02:32:46;6.10;99.90
29731;DHT22;16639;51.488;0.152;2023-04-25T02:35:14;6.10;99.90
29731;DHT22;16639;51.488;0.152;2023-04-25T02:37:42;6.10;99.90
29731;DHT22;16639;51.488;0.152;2023-04-25T02:40:09;5.90;99.90
29731;DHT22;16639;51.488;0.152;2023-04-25T02:42:37;5.90;99.90
29731;DHT22;16639;51.488;0.152;2023-04-25T02:45:04;5.80;99.90
29731;DHT22;16639;51.488;0.152;2023-04-25T02:47:32;5.90;99.90
29731;DHT22;16639;51.488;0.152;2023-04-25T02:49:59;5.80;99.90
29731;DHT22;16639;51.488;0.152;2023-04-25T02:52:29;5.90;99.90
29731;DHT22;16639;51.488;0.152;2023-04-25T02:54:56;5.90;99.90
29731;DHT22;16639;51.488;0.152;2023-04-25T02:57:24;5.90;99.90
29731;DHT22;16639;51.488;0.152;2023-04-25T02:59:51;5.90;99.90
29731;DHT22;16639;51.488;0.152;2023-04-25T03:02:18;5.80;99.90
29731;DHT22;16639;51.488;0.152;2023-04-25T03:04:46;5.80;99.90
29731;DHT22;16639;51.488;0.152;2023-04-25T03:07:13;5.80;99.90
29731;DHT22;16639;51.488;0.152;2023-04-25T03:09:41;5.80;99.90
29731;DHT22;16639;51.488;0.152;2023-04-25T03:12:08;5.70;99.90
29731;DHT22;16639;51.488;0.152;2023-04-25T03:14:35;5.80;99.90
29731;DHT22;16639;51.488;0.152;2023-04-25T03:17:03;5.70;99.90
29731;DHT22;16639;51.488;0.152;2023-04-25T03:19:30;5.70;99.90
29731;DHT22;16639;51.488;0.152;2023-04-25T03:21:57;5.70;99.90
29731;DHT22;16639;51.488;0.152;2023-04-25T03:24:25;5.70;99.90
29731;DHT22;16639;51.488;0.152;2023-04-25T03:26:54;5.70;99.90
29731;DHT22;16639;51.488;0.152;2023-04-25T03:29:21;5.70;99.90
29731;DHT22;16639;51.488;0.152;2023-04-25T03:31:51;5.70;99.90
29731;DHT22;16639;51.488;0.152;2023-04-25T03:34:19;5.70;99.90
29731;DHT22;16639;51.488;0.152;2023-04-25T03:36:48;5.70;99.90
29731;DHT22;16639;51.488;0.152;2023-04-25T03:39:15;5.60;99.90
29731;DHT22;16639;51.488;0.152;2023-04-25T03:41:44;5.60;99.90
29731;DHT22;16639;51.488;0.152;2023-04-25T03:44:11;5.20;99.90
29731;DHT22;16639;51.488;0.152;2023-04-25T03:46:39;6.10;99.90
29731;DHT22;16639;51.488;0.152;2023-04-25T03:49:07;5.60;99.90
29731;DHT22;16639;51.488;0.152;2023-04-25T03:51:34;5.60;99.90
29731;DHT22;16639;51.488;0.152;2023-04-25T03:54:02;5.70;99.90
29731;DHT22;16639;51.488;0.152;2023-04-25T03:56:30;5.50;99.90
29731;DHT22;16639;51.488;0.152;2023-04-25T03:58:57;5.50;99.90
29731;DHT22;16639;51.488;0.152;2023-04-25T04:01:24;5.50;99.90
29731;DHT22;16639;51.488;0.152;2023-04-25T04:03:52;5.50;99.90
29731;DHT22;16639;51.488;0.152;2023-04-25T04:06:20;5.40;99.90
29731;DHT22;16639;51.488;0.152;2023-04-25T04:08:48;5.40;99.90
29731;DHT22;16639;51.488;0.152;2023-04-25T04:11:15;5.40;99.90
29731;DHT22;16639;51.488;0.152;2023-04-25T04:13:42;5.40;99.90
29731;DHT22;16639;51.488;0.152;2023-04-25T04:16:10;5.40;99.90
29731;DHT22;16639;51.488;0.152;2023-04-25T04:18:38;5.40;99.90
29731;DHT22;16639;51.488;0.152;2023-04-25T04:21:05;5.30;99.90
29731;DHT22;16639;51.488;0.152;2023-04-25T04:23:33;5.30;99.90
29731;DHT22;16639;51.488;0.152;2023-04-25T04:26:00;5.40;99.90
29731;DHT22;16639;51.488;0.152;2023-04-25T04:28:28;5.40;99.90
29731;DHT22;16639;51.488;0.152;2023-04-25T04:30:55;5.30;99.90
29731;DHT22;16639;51.488;0.152;2023-04-25T04:33:23;5.40;99.90
29731;DHT22;16639;51.488;0.152;2023-04-25T04:35:51;5.40;99.90
29731;DHT22;16639;51.488;0.152;2023-04-25T04:38:20;5.40;99.90
29731;DHT22;16639;51.488;0.152;2023-04-25T04:40:49;5.40;99.90
29731;DHT22;16639;51.488;0.152;2023-04-25T04:43:17;5.30;99.90
29731;DHT22;16639;51.488;0.152;2023-04-25T04:45:45;5.40;99.90
29731;DHT22;16639;51.488;0.152;2023-04-25T04:48:13;5.30;99.90
29731;DHT22;16639;51.488;0.152;2023-04-25T04:50:43;5.30;99.90
29731;DHT22;16639;51.488;0.152;2023-04-25T04:53:12;5.90;99.90
29731;DHT22;16639;51.488;0.152;2023-04-25T04:55:40;5.30;99.90
29731;DHT22;16639;51.488;0.152;2023-04-25T04:58:08;5.30;99.90
29731;DHT22;16639;51.488;0.152;2023-04-25T05:00:35;5.30;99.90
29731;DHT22;16639;51.488;0.152;2023-04-25T05:03:03;5.30;99.90
29731;DHT22;16639;51.488;0.152;2023-04-25T05:05:30;5.20;99.90
29731;DHT22;16639;51.488;0.152;2023-04-25T05:07:58;5.20;99.90
29731;DHT22;16639;51.488;0.152;2023-04-25T05:10:26;4.90;99.90
29731;DHT22;16639;51.488;0.152;2023-04-25T05:12:53;4.60;99.90
29731;DHT22;16639;51.488;0.152;2023-04-25T05:15:20;5.00;99.90
29731;DHT22;16639;51.488;0.152;2023-04-25T05:17:47;5.00;99.90
29731;DHT22;16639;51.488;0.152;2023-04-25T05:20:15;5.00;99.90
29731;DHT22;16639;51.488;0.152;2023-04-25T05:22:42;5.00;99.90
29731;DHT22;16639;51.488;0.152;2023-04-25T05:25:10;5.10;99.90
29731;DHT22;16639;51.488;0.152;2023-04-25T05:27:38;5.10;99.90
29731;DHT22;16639;51.488;0.152;2023-04-25T05:30:06;5.10;99.90
29731;DHT22;16639;51.488;0.152;2023-04-25T05:32:34;4.20;99.90
29731;DHT22;16639;51.488;0.152;2023-04-25T05:35:01;5.10;99.90
29731;DHT22;16639;51.488;0.152;2023-04-25T05:37:29;6.20;99.90
29731;DHT22;16639;51.488;0.152;2023-04-25T05:39:58;5.20;99.90
29731;DHT22;16639;51.488;0.152;2023-04-25T05:42:25;5.30;99.90
29731;DHT22;16639;51.488;0.152;2023-04-25T05:44:53;5.30;99.90
29731;DHT22;16639;51.488;0.152;2023-04-25T05:47:20;5.80;99.90
29731;DHT22;16639;51.488;0.152;2023-04-25T05:49:48;5.30;99.90
29731;DHT22;16639;51.488;0.152;2023-04-25T05:52:15;5.30;99.90
29731;DHT22;16639;51.488;0.152;2023-04-25T05:54:43;5.30;99.90
29731;DHT22;16639;51.488;0.152;2023-04-25T05:57:20;5.30;99.90
29731;DHT22;16639;51.488;0.152;2023-04-25T05:59:48;5.30;99.90
29731;DHT22;16639;51.488;0.152;2023-04-25T06:02:15;5.30;99.90
29731;DHT22;16639;51.488;0.152;2023-04-25T06:04:43;5.30;99.90
29731;DHT22;16639;51.488;0.152;2023-04-25T06:07:10;5.40;99.90
29731;DHT22;16639;51.488;0.152;2023-04-25T06:09:38;5.40;99.90
29731;DHT22;16639;51.488;0.152;2023-04-25T06:12:06;5.40;99.90
29731;DHT22;16639;51.488;0.152;2023-04-25T06:14:34;5.40;99.90
29731;DHT22;16639;51.488;0.152;2023-04-25T06:17:03;5.50;99.90
29731;DHT22;16639;51.488;0.152;2023-04-25T06:19:33;5.40;99.90
29731;DHT22;16639;51.488;0.152;2023-04-25T06:22:02;5.50;99.90
29731;DHT22;16639;51.488;0.152;2023-04-25T06:24:29;5.50;99.90
29731;DHT22;16639;51.488;0.152;2023-04-25T06:26:56;5.50;99.90
29731;DHT22;16639;51.488;0.152;2023-04-25T06:29:24;5.60;99.90
29731;DHT22;16639;51.488;0.152;2023-04-25T06:31:51;5.60;99.90
29731;DHT22;16639;51.488;0.152;2023-04-25T06:34:20;5.80;99.90
29731;DHT22;16639;51.488;0.152;2023-04-25T06:36:47;5.00;99.90
29731;DHT22;16639;51.488;0.152;2023-04-25T06:39:15;5.60;99.90
29731;DHT22;16639;51.488;0.152;2023-04-25T06:41:43;5.60;99.90
29731;DHT22;16639;51.488;0.152;2023-04-25T06:44:10;5.60;99.90
29731;DHT22;16639;51.488;0.152;2023-04-25T06:46:38;5.50;99.90
29731;DHT22;16639;51.488;0.152;2023-04-25T06:49:05;6.10;99.90
29731;DHT22;16639;51.488;0.152;2023-04-25T06:51:32;5.60;99.90
29731;DHT22;16639;51.488;0.152;2023-04-25T06:54:00;5.60;99.90
29731;DHT22;16639;51.488;0.152;2023-04-25T06:56:28;5.80;99.90
29731;DHT22;16639;51.488;0.152;2023-04-25T06:58:56;5.80;99.90
29731;DHT22;16639;51.488;0.152;2023-04-25T07:01:24;5.80;99.90
29731;DHT22;16639;51.488;0.152;2023-04-25T07:03:52;5.90;99.90
29731;DHT22;16639;51.488;0.152;2023-04-25T07:06:19;5.90;99.90
29731;DHT22;16639;51.488;0.152;2023-04-25T07:08:47;5.90;99.90
29731;DHT22;16639;51.488;0.152;2023-04-25T07:11:15;5.80;99.90
29731;DHT22;16639;51.488;0.152;2023-04-25T07:13:42;5.80;99.90
29731;DHT22;16639;51.488;0.152;2023-04-25T07:16:09;5.80;99.90
29731;DHT22;16639;51.488;0.152;2023-04-25T07:18:36;6.00;99.90
29731;DHT22;16639;51.488;0.152;2023-04-25T07:21:04;6.00;99.90
29731;DHT22;16639;51.488;0.152;2023-04-25T07:23:31;6.00;99.90
29731;DHT22;16639;51.488;0.152;2023-04-25T07:25:59;6.10;99.90
29731;DHT22;16639;51.488;0.152;2023-04-25T07:28:27;6.10;99.90
29731;DHT22;16639;51.488;0.152;2023-04-25T07:30:54;6.10;99.90
29731;DHT22;16639;51.488;0.152;2023-04-25T07:33:23;6.20;99.90
29731;DHT22;16639;51.488;0.152;2023-04-25T07:35:52;5.70;99.90
29731;DHT22;16639;51.488;0.152;2023-04-25T07:38:19;6.60;99.90
29731;DHT22;16639;51.488;0.152;2023-04-25T07:40:48;6.40;99.90
29731;DHT22;16639;51.488;0.152;2023-04-25T07:43:15;6.50;99.90
29731;DHT22;16639;51.488;0.152;2023-04-25T07:45:44;6.60;99.90
29731;DHT22;16639;51.488;0.152;2023-04-25T07:48:16;6.50;99.90
29731;DHT22;16639;51.488;0.152;2023-04-25T07:50:45;6.60;99.90
29731;DHT22;16639;51.488;0.152;2023-04-25T07:53:12;6.80;99.90
29731;DHT22;16639;51.488;0.152;2023-04-25T07:55:40;6.70;99.90
29731;DHT22;16639;51.488;0.152;2023-04-25T07:58:07;7.10;99.90
29731;DHT22;16639;51.488;0.152;2023-04-25T08:00:36;6.80;99.90
29731;DHT22;16639;51.488;0.152;2023-04-25T08:03:03;6.70;99.90
29731;DHT22;16639;51.488;0.152;2023-04-25T08:05:31;6.80;99.90
29731;DHT22;16639;51.488;0.152;2023-04-25T08:07:58;6.80;99.90
29731;DHT22;16639;51.488;0.152;2023-04-25T08:10:26;6.80;99.90
29731;DHT22;16639;51.488;0.152;2023-04-25T08:12:53;6.80;99.90
29731;DHT22;16639;51.488;0.152;2023-04-25T08:15:21;6.80;99.90
29731;DHT22;16639;51.488;0.152;2023-04-25T08:17:48;6.90;99.90
29731;DHT22;16639;51.488;0.152;2023-04-25T08:20:15;6.90;99.90
29731;DHT22;16639;51.488;0.152;2023-04-25T08:22:43;6.90;99.90
29731;DHT22;16639;51.488;0.152;2023-04-25T08:25:10;6.90;99.90
29731;DHT22;16639;51.488;0.152;2023-04-25T08:27:38;6.90;99.90
29731;DHT22;16639;51.488;0.152;2023-04-25T08:30:06;8.40;99.90
29731;DHT22;16639;51.488;0.152;2023-04-25T08:32:35;7.00;99.90
29731;DHT22;16639;51.488;0.152;2023-04-25T08:35:05;7.60;99.90
29731;DHT22;16639;51.488;0.152;2023-04-25T08:37:35;7.10;99.90
29731;DHT22;16639;51.488;0.152;2023-04-25T08:40:14;7.10;99.90
29731;DHT22;16639;51.488;0.152;2023-04-25T08:42:42;7.10;99.90
29731;DHT22;16639;51.488;0.152;2023-04-25T08:45:10;7.20;99.90
29731;DHT22;16639;51.488;0.152;2023-04-25T08:47:38;7.20;99.90
29731;DHT22;16639;51.488;0.152;2023-04-25T08:50:07;7.20;99.90
29731;DHT22;16639;51.488;0.152;2023-04-25T08:52:37;7.30;99.90
29731;DHT22;16639;51.488;0.152;2023-04-25T08:55:09;7.30;99.90
29731;DHT22;16639;51.488;0.152;2023-04-25T08:57:37;7.40;99.90
29731;DHT22;16639;51.488;0.152;2023-04-25T09:00:06;7.30;99.90
29731;DHT22;16639;51.488;0.152;2023-04-25T09:02:36;8.10;99.90
29731;DHT22;16639;51.488;0.152;2023-04-25T09:05:04;7.40;99.90
29731;DHT22;16639;51.488;0.152;2023-04-25T09:07:33;7.50;99.90
29731;DHT22;16639;51.488;0.152;2023-04-25T09:10:01;7.50;99.90
29731;DHT22;16639;51.488;0.152;2023-04-25T09:12:30;7.50;99.90
29731;DHT22;16639;51.488;0.152;2023-04-25T09:15:10;7.60;99.90
29731;DHT22;16639;51.488;0.152;2023-04-25T09:17:41;7.20;99.90
29731;DHT22;16639;51.488;0.152;2023-04-25T09:20:13;7.70;99.90
29731;DHT22;16639;51.488;0.152;2023-04-25T09:22:40;7.70;99.90
29731;DHT22;16639;51.488;0.152;2023-04-25T09:25:11;7.70;99.90
29731;DHT22;16639;51.488;0.152;2023-04-25T09:27:50;8.10;99.90
29731;DHT22;16639;51.488;0.152;2023-04-25T09:30:34;7.70;99.90
29731;DHT22;16639;51.488;0.152;2023-04-25T09:33:06;8.80;99.90
29731;DHT22;16639;51.488;0.152;2023-04-25T09:35:43;8.20;99.90
29731;DHT22;16639;51.488;0.152;2023-04-25T09:38:12;7.90;99.90
29731;DHT22;16639;51.488;0.152;2023-04-25T09:40:46;8.00;99.90
29731;DHT22;16639;51.488;0.152;2023-04-25T09:43:25;7.90;99.90
29731;DHT22;16639;51.488;0.152;2023-04-25T09:45:54;7.90;99.90
29731;DHT22;16639;51.488;0.152;2023-04-25T09:48:28;8.00;99.90
29731;DHT22;16639;51.488;0.152;2023-04-25T09:51:18;8.20;99.90
29731;DHT22;16639;51.488;0.152;2023-04-25T09:53:46;8.10;99.90
29731;DHT22;16639;51.488;0.152;2023-04-25T09:56:18;8.20;99.90
29731;DHT22;16639;51.488;0.152;2023-04-25T09:58:47;8.20;99.90
29731;DHT22;16639;51.488;0.152;2023-04-25T10:01:16;8.20;99.90
29731;DHT22;16639;51.488;0.152;2023-04-25T10:03:45;8.10;99.90
29731;DHT22;16639;51.488;0.152;2023-04-25T10:06:19;8.30;99.90
29731;DHT22;16639;51.488;0.152;2023-04-25T10:08:50;8.20;99.90
29731;DHT22;16639;51.488;0.152;2023-04-25T10:11:18;8.40;99.90
29731;DHT22;16639;51.488;0.152;2023-04-25T10:13:46;8.50;99.90
29731;DHT22;16639;51.488;0.152;2023-04-25T10:16:16;10.00;99.90
29731;DHT22;16639;51.488;0.152;2023-04-25T10:18:43;8.70;99.90
29731;DHT22;16639;51.488;0.152;2023-04-25T10:21:11;8.70;99.90
29731;DHT22;16639;51.488;0.152;2023-04-25T10:23:39;8.70;99.90
29731;DHT22;16639;51.488;0.152;2023-04-25T10:26:07;8.80;99.90
29731;DHT22;16639;51.488;0.152;2023-04-25T10:28:56;8.90;99.90
29731;DHT22;16639;51.488;0.152;2023-04-25T10:31:25;9.00;99.90
29731;DHT22;16639;51.488;0.152;2023-04-25T10:33:53;9.10;99.90
29731;DHT22;16639;51.488;0.152;2023-04-25T10:36:22;9.20;99.90
29731;DHT22;16639;51.488;0.152;2023-04-25T10:38:50;9.30;99.90
29731;DHT22;16639;51.488;0.152;2023-04-25T10:41:20;9.40;99.90
29731;DHT22;16639;51.488;0.152;2023-04-25T10:43:49;9.50;99.90
29731;DHT22;16639;51.488;0.152;2023-04-25T10:46:25;9.50;99.90
29731;DHT22;16639;51.488;0.152;2023-04-25T10:48:55;9.50;99.90
29731;DHT22;16639;51.488;0.152;2023-04-25T10:51:28;10.10;99.90
29731;DHT22;16639;51.488;0.152;2023-04-25T10:54:17;11.00;99.90
29731;DHT22;16639;51.488;0.152;2023-04-25T10:56:45;9.60;99.90
29731;DHT22;16639;51.488;0.152;2023-04-25T10:59:15;9.70;99.90
29731;DHT22;16639;51.488;0.152;2023-04-25T11:01:44;9.70;99.90
29731;DHT22;16639;51.488;0.152;2023-04-25T11:04:29;9.80;99.90
29731;DHT22;16639;51.488;0.152;2023-04-25T11:09:35;9.70;99.90
29731;DHT22;16639;51.488;0.152;2023-04-25T11:12:03;9.70;99.90
29731;DHT22;16639;51.488;0.152;2023-04-25T11:14:31;9.70;99.90
29731;DHT22;16639;51.488;0.152;2023-04-25T11:16:59;9.80;99.90
29731;DHT22;16639;51.488;0.152;2023-04-25T11:19:28;9.80;99.90
29731;DHT22;16639;51.488;0.152;2023-04-25T11:22:00;9.80;99.90
29731;DHT22;16639;51.488;0.152;2023-04-25T11:24:29;9.80;99.90
29731;DHT22;16639;51.488;0.152;2023-04-25T11:27:01;9.80;99.90
29731;DHT22;16639;51.488;0.152;2023-04-25T11:29:34;9.90;99.90
29731;DHT22;16639;51.488;0.152;2023-04-25T11:32:02;9.70;99.90
29731;DHT22;16639;51.488;0.152;2023-04-25T11:34:31;9.70;99.90
29731;DHT22;16639;51.488;0.152;2023-04-25T11:37:01;9.70;99.90
29731;DHT22;16639;51.488;0.152;2023-04-25T11:39:29;9.70;99.90
29731;DHT22;16639;51.488;0.152;2023-04-25T11:41:57;9.70;99.90
29731;DHT22;16639;51.488;0.152;2023-04-25T11:44:28;9.70;99.90
29731;DHT22;16639;51.488;0.152;2023-04-25T11:46:55;9.90;99.90
29731;DHT22;16639;51.488;0.152;2023-04-25T11:49:22;9.90;99.90
29731;DHT22;16639;51.488;0.152;2023-04-25T11:51:51;9.90;99.90
29731;DHT22;16639;51.488;0.152;2023-04-25T11:54:19;9.90;99.90
29731;DHT22;16639;51.488;0.152;2023-04-25T11:56:46;9.90;99.90
29731;DHT22;16639;51.488;0.152;2023-04-25T11:59:14;9.90;99.90
29731;DHT22;16639;51.488;0.152;2023-04-25T12:01:49;10.00;99.90
29731;DHT22;16639;51.488;0.152;2023-04-25T12:04:22;10.10;99.90
29731;DHT22;16639;51.488;0.152;2023-04-25T12:06:52;10.20;99.90
29731;DHT22;16639;51.488;0.152;2023-04-25T12:09:21;10.20;99.90
29731;DHT22;16639;51.488;0.152;2023-04-25T12:11:56;10.30;99.90
29731;DHT22;16639;51.488;0.152;2023-04-25T12:14:27;10.40;99.90
29731;DHT22;16639;51.488;0.152;2023-04-25T12:16:56;10.30;99.90
29731;DHT22;16639;51.488;0.152;2023-04-25T12:19:35;10.30;99.90
29731;DHT22;16639;51.488;0.152;2023-04-25T12:22:07;10.30;99.90
29731;DHT22;16639;51.488;0.152;2023-04-25T12:24:46;10.80;99.90
29731;DHT22;16639;51.488;0.152;2023-04-25T12:27:15;10.30;99.90
29731;DHT22;16639;51.488;0.152;2023-04-25T12:29:54;10.40;99.90
29731;DHT22;16639;51.488;0.152;2023-04-25T12:32:22;10.30;99.90
29731;DHT22;16639;51.488;0.152;2023-04-25T12:34:50;10.40;99.90
29731;DHT22;16639;51.488;0.152;2023-04-25T12:37:18;9.60;99.90
29731;DHT22;16639;51.488;0.152;2023-04-25T12:39:45;10.40;99.90
29731;DHT22;16639;51.488;0.152;2023-04-25T12:42:13;10.50;99.90
29731;DHT22;16639;51.488;0.152;2023-04-25T12:44:40;10.50;99.90
29731;DHT22;16639;51.488;0.152;2023-04-25T12:47:08;10.60;99.90
29731;DHT22;16639;51.488;0.152;2023-04-25T12:49:36;10.70;99.90
29731;DHT22;16639;51.488;0.152;2023-04-25T12:52:04;10.80;99.90
29731;DHT22;16639;51.488;0.152;2023-04-25T12:54:32;10.80;99.90
29731;DHT22;16639;51.488;0.152;2023-04-25T12:56:59;10.90;99.90
29731;DHT22;16639;51.488;0.152;2023-04-25T12:59:28;10.90;99.90
29731;DHT22;16639;51.488;0.152;2023-04-25T13:01:55;11.20;99.90
29731;DHT22;16639;51.488;0.152;2023-04-25T13:04:23;11.00;99.90
29731;DHT22;16639;51.488;0.152;2023-04-25T13:06:51;11.10;99.90
29731;DHT22;16639;51.488;0.152;2023-04-25T13:09:18;11.10;99.90
29731;DHT22;16639;51.488;0.152;2023-04-25T13:11:46;11.10;99.90
29731;DHT22;16639;51.488;0.152;2023-04-25T13:14:22;11.20;99.90
29731;DHT22;16639;51.488;0.152;2023-04-25T13:16:59;11.10;99.90
29731;DHT22;16639;51.488;0.152;2023-04-25T13:19:28;11.10;99.90
29731;DHT22;16639;51.488;0.152;2023-04-25T13:21:55;11.10;99.90
29731;DHT22;16639;51.488;0.152;2023-04-25T13:24:23;11.20;99.90
29731;DHT22;16639;51.488;0.152;2023-04-25T13:26:50;11.10;99.90
29731;DHT22;16639;51.488;0.152;2023-04-25T13:29:18;11.20;99.90
29731;DHT22;16639;51.488;0.152;2023-04-25T13:31:46;11.20;99.90
29731;DHT22;16639;51.488;0.152;2023-04-25T13:34:13;11.30;99.90
29731;DHT22;16639;51.488;0.152;2023-04-25T13:36:41;11.30;99.90
29731;DHT22;16639;51.488;0.152;2023-04-25T13:39:08;11.40;99.90
29731;DHT22;16639;51.488;0.152;2023-04-25T13:41:35;11.30;99.90
29731;DHT22;16639;51.488;0.152;2023-04-25T13:44:03;11.30;99.90
29731;DHT22;16639;51.488;0.152;2023-04-25T13:46:31;11.30;99.90
29731;DHT22;16639;51.488;0.152;2023-04-25T13:49:12;11.30;99.90
29731;DHT22;16639;51.488;0.152;2023-04-25T13:51:40;11.30;99.90
29731;DHT22;16639;51.488;0.152;2023-04-25T13:54:09;11.40;99.90
29731;DHT22;16639;51.488;0.152;2023-04-25T13:56:37;11.40;99.90
29731;DHT22;16639;51.488;0.152;2023-04-25T13:59:04;11.60;99.90
29731;DHT22;16639;51.488;0.152;2023-04-25T14:01:31;11.60;99.90
29731;DHT22;16639;51.488;0.152;2023-04-25T14:04:02;11.60;99.90
29731;DHT22;16639;51.488;0.152;2023-04-25T14:06:32;11.60;99.90
29731;DHT22;16639;51.488;0.152;2023-04-25T14:09:00;11.60;99.90
29731;DHT22;16639;51.488;0.152;2023-04-25T14:11:31;11.50;99.90
29731;DHT22;16639;51.488;0.152;2023-04-25T14:13:59;11.60;99.90
29731;DHT22;16639;51.488;0.152;2023-04-25T14:16:26;11.50;99.90
29731;DHT22;16639;51.488;0.152;2023-04-25T14:18:54;11.50;99.90
29731;DHT22;16639;51.488;0.152;2023-04-25T14:21:22;11.50;99.90
29731;DHT22;16639;51.488;0.152;2023-04-25T14:23:49;11.60;99.90
29731;DHT22;16639;51.488;0.152;2023-04-25T14:26:17;11.50;99.90
29731;DHT22;16639;51.488;0.152;2023-04-25T14:28:45;11.60;99.90
29731;DHT22;16639;51.488;0.152;2023-04-25T14:31:12;11.70;99.90
29731;DHT22;16639;51.488;0.152;2023-04-25T14:33:41;11.70;99.90
29731;DHT22;16639;51.488;0.152;2023-04-25T14:36:09;12.00;99.90
29731;DHT22;16639;51.488;0.152;2023-04-25T14:38:37;11.80;99.90
29731;DHT22;16639;51.488;0.152;2023-04-25T14:41:04;11.90;99.90
29731;DHT22;16639;51.488;0.152;2023-04-25T14:43:32;11.90;99.90
29731;DHT22;16639;51.488;0.152;2023-04-25T14:46:08;11.90;99.90
29731;DHT22;16639;51.488;0.152;2023-04-25T14:48:45;11.90;99.90
29731;DHT22;16639;51.488;0.152;2023-04-25T14:51:12;11.90;99.90
29731;DHT22;16639;51.488;0.152;2023-04-25T14:53:41;11.80;99.90
29731;DHT22;16639;51.488;0.152;2023-04-25T14:56:08;11.90;99.90
29731;DHT22;16639;51.488;0.152;2023-04-25T14:58:35;11.70;99.90
29731;DHT22;16639;51.488;0.152;2023-04-25T15:01:03;11.60;99.00
29731;DHT22;16639;51.488;0.152;2023-04-25T15:03:31;11.40;99.10
29731;DHT22;16639;51.488;0.152;2023-04-25T15:05:59;11.30;99.60
29731;DHT22;16639;51.488;0.152;2023-04-25T15:08:26;11.30;99.60
29731;DHT22;16639;51.488;0.152;2023-04-25T15:10:54;11.30;99.90
29731;DHT22;16639;51.488;0.152;2023-04-25T15:13:23;11.30;99.90
29731;DHT22;16639;51.488;0.152;2023-04-25T15:15:50;11.40;99.90
29731;DHT22;16639;51.488;0.152;2023-04-25T15:18:20;11.90;99.90
29731;DHT22;16639;51.488;0.152;2023-04-25T15:20:51;11.50;99.90
29731;DHT22;16639;51.488;0.152;2023-04-25T15:23:20;11.90;99.90
29731;DHT22;16639;51.488;0.152;2023-04-25T15:25:50;11.60;99.90
29731;DHT22;16639;51.488;0.152;2023-04-25T15:28:18;11.60;99.90
29731;DHT22;16639;51.488;0.152;2023-04-25T15:30:48;11.70;99.90
29731;DHT22;16639;51.488;0.152;2023-04-25T15:33:16;11.60;99.90
29731;DHT22;16639;51.488;0.152;2023-04-25T15:35:43;11.70;99.90
29731;DHT22;16639;51.488;0.152;2023-04-25T15:38:10;11.70;99.90
29731;DHT22;16639;51.488;0.152;2023-04-25T15:40:38;12.20;99.90
29731;DHT22;16639;51.488;0.152;2023-04-25T15:43:05;12.00;99.90
29731;DHT22;16639;51.488;0.152;2023-04-25T15:45:34;11.90;99.90
29731;DHT22;16639;51.488;0.152;2023-04-25T15:48:04;12.00;99.90
29731;DHT22;16639;51.488;0.152;2023-04-25T15:50:31;12.00;99.90
29731;DHT22;16639;51.488;0.152;2023-04-25T15:52:59;12.10;99.90
29731;DHT22;16639;51.488;0.152;2023-04-25T15:55:26;12.00;99.90